map of PIO home
PIO - Airport
Location
City:  Pisco, Ica, Perú
Name:Capitán FAP Renán Elías Olivera Airport
ICAO:SPSO
IATA:PIO

Details
Type:Airport (Aerodrome, Airfield)
Use:Public/Civil, Military, International (customs port of entry)
Latitude:13°44'41"S (-13.744799)
Longitude:76°13'13"W (-76.220410)
Elevation:39 ft (12 m)
Variation:2.16°W (WMM2015 magnetic declination)
-0.17° annual change
Runways:1
Longest:9908 × 148 ft (3020 × 45 m), paved

Time
Time Zone:UTC-5
Local Time:

Weather
METAR:SPSO 180100Z 21012KT CAVOK 18/15 Q1012 RMK PP000
TAF:SPSO 172300Z 1800/1824 22012KT CAVOK TX22/1819Z TN13/1810Z
BECMG 1803/1805 19005KT 8000 NSC
BECMG 1808/1810 4000 BR SCT010
FM181400 29007KT 8000 NSW
BECMG 1818/1820 23014KT CAVOK

Related Locations
Nearby:
Farthest:REP: 12447 mi / 20032 km
Siem Reap [Angkor Intl], 17, KH

Find:

   beyond  
but within

Other Information
Maps:
NOTAMs:
Links:
Sources:

  
  • flag of Perú
  • flag of Ica
  

Sectional Chart

Flight Planning
at skyvector.com

Satellite Image

Google Maps Satellite view

 

Copyright © 2004-2018 Karl L. Swartz. All rights reserved.
The Great Circle Mapper name and logo are trademarks of the Great Circle Mapper.
All other trademarks mentioned herein belong to their respective owners.
Please see credits for attibutions and further copyright information.

  Follow gcmap on Facebook Follow gcmap on Twitter Follow gcmap on Google+ GCmap on LinkedIn

hCard Microformat

Geo Microformat